Lakehills, Texas
Current Conditions -  °F | °C
As of 6:15 PM on Wednesday 28 Jan 2015 (Local Time) from K5C1 Reporting Station
Clear Clear  
Wind Chill: 68°   Ceiling: Unl
Heat Index: 68°   Visibility: 10mi
Dew Point: 34°   Wind: 5mph
Humidity: 28%   Direction: 170°S
Pressure: 30.09"   Gusts: NA
Location:  29.6773°N, 98.9°W
Report Text: K5C1 290015Z AUTO 17004KT 10SM CLR 20/01 A3009 RMK AO1
Loading
Personal Weather Stations






























Interactive Weather Map New forecast layout! Learn more

10-Day Weather Forecast

Advertisements
Track Severe Weather on mobile